sensor_id;sensor_type;location;lat;lon;timestamp;pressure;altitude;pressure_sealevel;temperature;humidity
61037;BME280;72210;47.076;15.430;2023-10-13T00:02:03;97418.72;;;14.05;100.00
61037;BME280;72210;47.076;15.430;2023-10-13T00:04:30;97423.53;;;13.98;100.00
61037;BME280;72210;47.076;15.430;2023-10-13T00:06:58;97423.66;;;13.96;100.00
61037;BME280;72210;47.076;15.430;2023-10-13T00:09:25;97422.84;;;13.96;100.00
61037;BME280;72210;47.076;15.430;2023-10-13T00:11:52;97418.75;;;13.92;100.00
61037;BME280;72210;47.076;15.430;2023-10-13T00:14:20;97422.44;;;13.89;100.00
61037;BME280;72210;47.076;15.430;2023-10-13T00:16:47;97413.41;;;13.93;100.00
61037;BME280;72210;47.076;15.430;2023-10-13T00:19:16;97412.47;;;13.94;100.00
61037;BME280;72210;47.076;15.430;2023-10-13T00:21:43;97414.47;;;13.91;100.00
61037;BME280;72210;47.076;15.430;2023-10-13T00:24:10;97417.09;;;13.91;100.00
61037;BME280;72210;47.076;15.430;2023-10-13T00:26:37;97417.31;;;13.88;100.00
61037;BME280;72210;47.076;15.430;2023-10-13T00:29:04;97412.41;;;13.83;100.00
61037;BME280;72210;47.076;15.430;2023-10-13T00:31:31;97416.09;;;13.80;100.00
61037;BME280;72210;47.076;15.430;2023-10-13T00:33:59;97403.09;;;13.79;100.00
61037;BME280;72210;47.076;15.430;2023-10-13T00:36:27;97405.63;;;13.80;100.00
61037;BME280;72210;47.076;15.430;2023-10-13T00:38:54;97412.66;;;13.80;100.00
61037;BME280;72210;47.076;15.430;2023-10-13T00:41:21;97402.06;;;13.81;100.00
61037;BME280;72210;47.076;15.430;2023-10-13T00:43:49;97405.63;;;13.80;100.00
61037;BME280;72210;47.076;15.430;2023-10-13T00:46:16;97404.56;;;13.83;100.00
61037;BME280;72210;47.076;15.430;2023-10-13T00:48:43;97403.59;;;13.84;100.00
61037;BME280;72210;47.076;15.430;2023-10-13T00:51:12;97396.50;;;13.86;100.00
61037;BME280;72210;47.076;15.430;2023-10-13T00:53:41;97392.91;;;13.87;100.00
61037;BME280;72210;47.076;15.430;2023-10-13T00:56:08;97393.34;;;13.81;100.00
61037;BME280;72210;47.076;15.430;2023-10-13T00:58:36;97391.81;;;13.78;100.00
61037;BME280;72210;47.076;15.430;2023-10-13T01:01:04;97388.88;;;13.70;100.00
61037;BME280;72210;47.076;15.430;2023-10-13T01:03:31;97397.06;;;13.65;100.00
61037;BME280;72210;47.076;15.430;2023-10-13T01:05:58;97395.63;;;13.61;100.00
61037;BME280;72210;47.076;15.430;2023-10-13T01:08:32;97394.47;;;13.65;100.00
61037;BME280;72210;47.076;15.430;2023-10-13T01:11:00;97394.56;;;13.64;100.00
61037;BME280;72210;47.076;15.430;2023-10-13T01:13:27;97406.22;;;13.60;100.00
61037;BME280;72210;47.076;15.430;2023-10-13T01:15:54;97403.50;;;13.61;100.00
61037;BME280;72210;47.076;15.430;2023-10-13T01:18:22;97387.03;;;13.59;100.00
61037;BME280;72210;47.076;15.430;2023-10-13T01:20:49;97394.19;;;13.57;100.00
61037;BME280;72210;47.076;15.430;2023-10-13T01:23:17;97397.63;;;13.58;100.00
61037;BME280;72210;47.076;15.430;2023-10-13T01:25:45;97391.16;;;13.51;100.00
61037;BME280;72210;47.076;15.430;2023-10-13T01:28:12;97389.00;;;13.44;100.00
61037;BME280;72210;47.076;15.430;2023-10-13T01:30:39;97383.75;;;13.44;100.00
61037;BME280;72210;47.076;15.430;2023-10-13T01:33:06;97390.03;;;13.42;100.00
61037;BME280;72210;47.076;15.430;2023-10-13T01:35:33;97399.16;;;13.36;100.00
61037;BME280;72210;47.076;15.430;2023-10-13T01:38:00;97406.91;;;13.38;100.00
61037;BME280;72210;47.076;15.430;2023-10-13T01:40:29;97417.16;;;13.41;100.00
61037;BME280;72210;47.076;15.430;2023-10-13T01:42:56;97408.06;;;13.34;100.00
61037;BME280;72210;47.076;15.430;2023-10-13T01:45:23;97411.78;;;13.29;100.00
61037;BME280;72210;47.076;15.430;2023-10-13T01:47:50;97413.78;;;13.26;100.00
61037;BME280;72210;47.076;15.430;2023-10-13T01:50:17;97415.59;;;13.25;100.00
61037;BME280;72210;47.076;15.430;2023-10-13T01:52:44;97413.06;;;13.24;100.00
61037;BME280;72210;47.076;15.430;2023-10-13T01:55:12;97426.97;;;13.24;100.00
61037;BME280;72210;47.076;15.430;2023-10-13T01:57:41;97428.13;;;13.20;100.00
61037;BME280;72210;47.076;15.430;2023-10-13T02:00:09;97414.53;;;13.15;100.00
61037;BME280;72210;47.076;15.430;2023-10-13T02:02:36;97421.88;;;13.10;100.00
61037;BME280;72210;47.076;15.430;2023-10-13T02:05:04;97427.09;;;13.10;100.00
61037;BME280;72210;47.076;15.430;2023-10-13T02:07:31;97426.47;;;13.06;100.00
61037;BME280;72210;47.076;15.430;2023-10-13T02:09:58;97427.84;;;12.99;100.00
61037;BME280;72210;47.076;15.430;2023-10-13T02:12:25;97440.06;;;12.99;100.00
61037;BME280;72210;47.076;15.430;2023-10-13T02:14:54;97439.84;;;13.02;100.00
61037;BME280;72210;47.076;15.430;2023-10-13T02:17:21;97430.00;;;12.92;100.00
61037;BME280;72210;47.076;15.430;2023-10-13T02:19:48;97439.03;;;12.88;100.00
61037;BME280;72210;47.076;15.430;2023-10-13T02:22:15;97444.97;;;12.90;100.00
61037;BME280;72210;47.076;15.430;2023-10-13T02:24:42;97435.44;;;12.89;100.00
61037;BME280;72210;47.076;15.430;2023-10-13T02:27:09;97440.78;;;12.88;100.00
61037;BME280;72210;47.076;15.430;2023-10-13T02:29:36;97421.88;;;12.84;100.00
61037;BME280;72210;47.076;15.430;2023-10-13T02:32:04;97424.59;;;12.83;100.00
61037;BME280;72210;47.076;15.430;2023-10-13T02:34:31;97418.13;;;12.75;100.00
61037;BME280;72210;47.076;15.430;2023-10-13T02:36:58;97418.44;;;12.71;100.00
61037;BME280;72210;47.076;15.430;2023-10-13T02:39:25;97404.63;;;12.69;100.00
61037;BME280;72210;47.076;15.430;2023-10-13T02:41:53;97401.69;;;12.73;100.00
61037;BME280;72210;47.076;15.430;2023-10-13T02:44:20;97397.75;;;12.68;100.00
61037;BME280;72210;47.076;15.430;2023-10-13T02:46:47;97386.44;;;12.67;100.00
61037;BME280;72210;47.076;15.430;2023-10-13T02:49:16;97388.84;;;12.70;100.00
61037;BME280;72210;47.076;15.430;2023-10-13T02:51:43;97379.88;;;12.62;100.00
61037;BME280;72210;47.076;15.430;2023-10-13T02:54:10;97372.84;;;12.62;100.00
61037;BME280;72210;47.076;15.430;2023-10-13T02:56:38;97380.38;;;12.67;100.00
61037;BME280;72210;47.076;15.430;2023-10-13T02:59:05;97390.63;;;12.70;100.00
61037;BME280;72210;47.076;15.430;2023-10-13T03:01:33;97380.47;;;12.78;100.00
61037;BME280;72210;47.076;15.430;2023-10-13T03:04:01;97385.09;;;12.74;100.00
61037;BME280;72210;47.076;15.430;2023-10-13T03:06:30;97388.31;;;12.78;100.00
61037;BME280;72210;47.076;15.430;2023-10-13T03:08:57;97383.19;;;12.77;100.00
61037;BME280;72210;47.076;15.430;2023-10-13T03:11:23;97381.44;;;12.77;100.00
61037;BME280;72210;47.076;15.430;2023-10-13T03:13:50;97368.13;;;12.80;100.00
61037;BME280;72210;47.076;15.430;2023-10-13T03:16:17;97364.59;;;12.81;100.00
61037;BME280;72210;47.076;15.430;2023-10-13T03:18:47;97367.50;;;12.89;100.00
61037;BME280;72210;47.076;15.430;2023-10-13T03:21:14;97368.78;;;12.84;100.00
61037;BME280;72210;47.076;15.430;2023-10-13T03:23:43;97368.56;;;12.87;100.00
61037;BME280;72210;47.076;15.430;2023-10-13T03:26:10;97377.53;;;12.83;100.00
61037;BME280;72210;47.076;15.430;2023-10-13T03:28:37;97373.25;;;12.82;100.00
61037;BME280;72210;47.076;15.430;2023-10-13T03:31:04;97374.09;;;12.82;100.00
61037;BME280;72210;47.076;15.430;2023-10-13T03:33:31;97371.38;;;12.84;100.00
61037;BME280;72210;47.076;15.430;2023-10-13T03:35:58;97374.94;;;12.83;100.00
61037;BME280;72210;47.076;15.430;2023-10-13T03:38:24;97368.25;;;12.79;100.00
61037;BME280;72210;47.076;15.430;2023-10-13T03:40:53;97372.09;;;12.86;100.00
61037;BME280;72210;47.076;15.430;2023-10-13T03:43:20;97370.31;;;12.86;100.00
61037;BME280;72210;47.076;15.430;2023-10-13T03:45:49;97366.47;;;12.92;100.00
61037;BME280;72210;47.076;15.430;2023-10-13T03:48:16;97391.78;;;12.91;100.00
61037;BME280;72210;47.076;15.430;2023-10-13T03:50:44;97403.38;;;12.87;100.00
61037;BME280;72210;47.076;15.430;2023-10-13T03:53:10;97407.78;;;12.87;100.00
61037;BME280;72210;47.076;15.430;2023-10-13T03:55:37;97403.47;;;12.86;100.00
61037;BME280;72210;47.076;15.430;2023-10-13T03:58:06;97401.69;;;12.86;100.00
61037;BME280;72210;47.076;15.430;2023-10-13T04:00:33;97409.13;;;12.80;100.00
61037;BME280;72210;47.076;15.430;2023-10-13T04:03:00;97410.06;;;12.79;100.00
61037;BME280;72210;47.076;15.430;2023-10-13T04:05:27;97407.56;;;12.77;100.00
61037;BME280;72210;47.076;15.430;2023-10-13T04:07:54;97406.59;;;12.78;100.00
61037;BME280;72210;47.076;15.430;2023-10-13T04:10:28;97416.22;;;12.78;100.00
61037;BME280;72210;47.076;15.430;2023-10-13T04:12:55;97417.16;;;12.77;100.00
61037;BME280;72210;47.076;15.430;2023-10-13T04:15:23;97425.63;;;12.80;100.00
61037;BME280;72210;47.076;15.430;2023-10-13T04:17:50;97413.22;;;12.71;100.00
61037;BME280;72210;47.076;15.430;2023-10-13T04:20:17;97424.78;;;12.67;100.00
61037;BME280;72210;47.076;15.430;2023-10-13T04:22:45;97419.97;;;12.61;100.00
61037;BME280;72210;47.076;15.430;2023-10-13T04:25:12;97410.78;;;12.55;100.00
61037;BME280;72210;47.076;15.430;2023-10-13T04:27:39;97417.06;;;12.52;100.00
61037;BME280;72210;47.076;15.430;2023-10-13T04:30:07;97420.69;;;12.50;100.00
61037;BME280;72210;47.076;15.430;2023-10-13T04:32:36;97428.34;;;12.53;100.00
61037;BME280;72210;47.076;15.430;2023-10-13T04:35:04;97426.03;;;12.48;100.00
61037;BME280;72210;47.076;15.430;2023-10-13T04:37:31;97430.94;;;12.40;100.00
61037;BME280;72210;47.076;15.430;2023-10-13T04:39:59;97436.25;;;12.38;100.00
61037;BME280;72210;47.076;15.430;2023-10-13T04:42:27;97437.28;;;12.36;100.00
61037;BME280;72210;47.076;15.430;2023-10-13T04:44:54;97432.88;;;12.36;100.00
61037;BME280;72210;47.076;15.430;2023-10-13T04:47:21;97434.66;;;12.36;100.00
61037;BME280;72210;47.076;15.430;2023-10-13T04:49:51;97429.78;;;12.44;100.00
61037;BME280;72210;47.076;15.430;2023-10-13T04:52:18;97423.81;;;12.42;100.00
61037;BME280;72210;47.076;15.430;2023-10-13T04:54:45;97424.84;;;12.39;100.00
61037;BME280;72210;47.076;15.430;2023-10-13T04:57:12;97422.03;;;12.43;100.00
61037;BME280;72210;47.076;15.430;2023-10-13T04:59:40;97431.56;;;12.44;100.00
61037;BME280;72210;47.076;15.430;2023-10-13T05:02:07;97428.84;;;12.45;100.00
61037;BME280;72210;47.076;15.430;2023-10-13T05:04:34;97438.06;;;12.51;100.00
61037;BME280;72210;47.076;15.430;2023-10-13T05:07:03;97434.72;;;12.62;100.00
61037;BME280;72210;47.076;15.430;2023-10-13T05:09:30;97440.97;;;12.59;100.00
61037;BME280;72210;47.076;15.430;2023-10-13T05:11:57;97445.19;;;12.62;100.00
61037;BME280;72210;47.076;15.430;2023-10-13T05:14:24;97458.13;;;12.63;100.00
61037;BME280;72210;47.076;15.430;2023-10-13T05:16:51;97449.75;;;12.58;100.00
61037;BME280;72210;47.076;15.430;2023-10-13T05:19:18;97458.84;;;12.52;100.00
61037;BME280;72210;47.076;15.430;2023-10-13T05:21:45;97456.53;;;12.48;100.00
61037;BME280;72210;47.076;15.430;2023-10-13T05:24:14;97464.28;;;12.49;100.00
61037;BME280;72210;47.076;15.430;2023-10-13T05:26:41;97460.50;;;12.41;100.00
61037;BME280;72210;47.076;15.430;2023-10-13T05:29:08;97471.22;;;12.36;100.00
61037;BME280;72210;47.076;15.430;2023-10-13T05:31:54;97474.97;;;12.32;100.00
61037;BME280;72210;47.076;15.430;2023-10-13T05:34:21;97484.50;;;12.33;100.00
61037;BME280;72210;47.076;15.430;2023-10-13T05:36:49;97483.19;;;12.26;100.00
61037;BME280;72210;47.076;15.430;2023-10-13T05:39:17;97491.03;;;12.26;100.00
61037;BME280;72210;47.076;15.430;2023-10-13T05:41:45;97486.88;;;12.23;100.00
61037;BME280;72210;47.076;15.430;2023-10-13T05:44:12;97489.19;;;12.28;100.00
61037;BME280;72210;47.076;15.430;2023-10-13T05:46:39;97485.31;;;12.33;100.00
61037;BME280;72210;47.076;15.430;2023-10-13T05:49:07;97490.91;;;12.42;100.00
61037;BME280;72210;47.076;15.430;2023-10-13T05:51:34;97493.13;;;12.48;100.00
61037;BME280;72210;47.076;15.430;2023-10-13T05:54:02;97493.22;;;12.59;100.00
61037;BME280;72210;47.076;15.430;2023-10-13T05:56:31;97496.28;;;12.66;100.00
61037;BME280;72210;47.076;15.430;2023-10-13T05:58:58;97496.16;;;12.67;100.00
61037;BME280;72210;47.076;15.430;2023-10-13T06:01:26;97502.88;;;12.71;100.00
61037;BME280;72210;47.076;15.430;2023-10-13T06:03:53;97501.00;;;12.73;100.00
61037;BME280;72210;47.076;15.430;2023-10-13T06:06:21;97501.31;;;12.82;100.00
61037;BME280;72210;47.076;15.430;2023-10-13T06:08:48;97504.38;;;12.88;100.00
61037;BME280;72210;47.076;15.430;2023-10-13T06:11:15;97509.19;;;12.95;100.00
61037;BME280;72210;47.076;15.430;2023-10-13T06:13:44;97504.78;;;13.08;100.00
61037;BME280;72210;47.076;15.430;2023-10-13T06:16:14;97507.75;;;13.16;100.00
61037;BME280;72210;47.076;15.430;2023-10-13T06:18:41;97503.66;;;13.25;100.00
61037;BME280;72210;47.076;15.430;2023-10-13T06:21:08;97500.97;;;13.39;100.00
61037;BME280;72210;47.076;15.430;2023-10-13T06:23:35;97504.28;;;13.54;100.00
61037;BME280;72210;47.076;15.430;2023-10-13T06:26:02;97504.16;;;13.69;100.00
61037;BME280;72210;47.076;15.430;2023-10-13T06:28:29;97508.84;;;13.76;100.00
61037;BME280;72210;47.076;15.430;2023-10-13T06:30:59;97513.75;;;13.94;100.00
61037;BME280;72210;47.076;15.430;2023-10-13T06:33:26;97498.97;;;13.93;100.00
61037;BME280;72210;47.076;15.430;2023-10-13T06:35:53;97509.63;;;14.03;100.00
61037;BME280;72210;47.076;15.430;2023-10-13T06:38:20;97502.78;;;14.13;100.00
61037;BME280;72210;47.076;15.430;2023-10-13T06:40:47;97512.28;;;14.27;100.00
61037;BME280;72210;47.076;15.430;2023-10-13T06:43:14;97501.41;;;14.44;100.00
61037;BME280;72210;47.076;15.430;2023-10-13T06:45:42;97500.91;;;14.63;100.00
61037;BME280;72210;47.076;15.430;2023-10-13T06:48:11;97507.38;;;14.70;100.00
61037;BME280;72210;47.076;15.430;2023-10-13T06:50:38;97503.28;;;14.66;100.00
61037;BME280;72210;47.076;15.430;2023-10-13T06:53:05;97507.00;;;14.64;100.00
61037;BME280;72210;47.076;15.430;2023-10-13T06:55:32;97510.88;;;14.58;100.00
61037;BME280;72210;47.076;15.430;2023-10-13T06:57:59;97509.53;;;14.52;100.00
61037;BME280;72210;47.076;15.430;2023-10-13T07:00:27;97517.00;;;14.46;100.00
61037;BME280;72210;47.076;15.430;2023-10-13T07:02:54;97513.56;;;14.45;100.00
61037;BME280;72210;47.076;15.430;2023-10-13T07:05:23;97518.34;;;14.51;100.00
61037;BME280;72210;47.076;15.430;2023-10-13T07:07:50;97520.13;;;14.51;100.00
61037;BME280;72210;47.076;15.430;2023-10-13T07:10:18;97523.25;;;14.56;100.00
61037;BME280;72210;47.076;15.430;2023-10-13T07:12:45;97524.59;;;14.62;100.00
61037;BME280;72210;47.076;15.430;2023-10-13T07:15:12;97513.84;;;14.78;100.00
61037;BME280;72210;47.076;15.430;2023-10-13T07:17:39;97511.47;;;14.86;100.00
61037;BME280;72210;47.076;15.430;2023-10-13T07:20:08;97509.50;;;15.01;100.00
61037;BME280;72210;47.076;15.430;2023-10-13T07:22:36;97508.41;;;15.15;100.00
61037;BME280;72210;47.076;15.430;2023-10-13T07:25:04;97508.56;;;15.24;100.00
61037;BME280;72210;47.076;15.430;2023-10-13T07:27:31;97510.03;;;15.40;100.00
61037;BME280;72210;47.076;15.430;2023-10-13T07:29:58;97509.91;;;15.53;100.00
61037;BME280;72210;47.076;15.430;2023-10-13T07:32:25;97503.34;;;15.70;100.00
61037;BME280;72210;47.076;15.430;2023-10-13T07:34:53;97496.53;;;15.90;100.00
61037;BME280;72210;47.076;15.430;2023-10-13T07:37:22;97496.06;;;15.96;100.00
61037;BME280;72210;47.076;15.430;2023-10-13T07:39:50;97493.16;;;16.10;100.00
61037;BME280;72210;47.076;15.430;2023-10-13T07:42:17;97490.16;;;16.15;100.00
61037;BME280;72210;47.076;15.430;2023-10-13T07:44:45;97487.00;;;16.32;100.00
61037;BME280;72210;47.076;15.430;2023-10-13T07:47:12;97489.34;;;16.47;100.00
61037;BME280;72210;47.076;15.430;2023-10-13T07:49:40;97496.31;;;16.69;100.00
61037;BME280;72210;47.076;15.430;2023-10-13T07:52:08;97496.59;;;16.87;100.00
61037;BME280;72210;47.076;15.430;2023-10-13T07:54:36;97499.63;;;17.03;100.00
61037;BME280;72210;47.076;15.430;2023-10-13T07:57:05;97492.53;;;17.25;100.00
61037;BME280;72210;47.076;15.430;2023-10-13T07:59:32;97473.34;;;17.34;100.00
61037;BME280;72210;47.076;15.430;2023-10-13T08:01:59;97465.06;;;17.49;100.00
61037;BME280;72210;47.076;15.430;2023-10-13T08:04:26;97475.81;;;17.67;100.00
61037;BME280;72210;47.076;15.430;2023-10-13T08:06:53;97468.34;;;17.82;98.55
61037;BME280;72210;47.076;15.430;2023-10-13T08:09:20;97473.72;;;18.01;96.59
61037;BME280;72210;47.076;15.430;2023-10-13T08:11:48;97468.88;;;18.16;94.64
61037;BME280;72210;47.076;15.430;2023-10-13T08:14:17;97470.56;;;18.37;94.70
61037;BME280;72210;47.076;15.430;2023-10-13T08:17:00;97468.19;;;18.53;95.34
61037;BME280;72210;47.076;15.430;2023-10-13T08:19:28;97471.13;;;18.60;91.79
61037;BME280;72210;47.076;15.430;2023-10-13T08:21:58;97465.69;;;18.71;89.26
61037;BME280;72210;47.076;15.430;2023-10-13T08:24:25;97470.56;;;18.76;91.35
61037;BME280;72210;47.076;15.430;2023-10-13T08:26:52;97470.00;;;18.92;92.90
61037;BME280;72210;47.076;15.430;2023-10-13T08:29:21;97462.06;;;19.11;92.57
61037;BME280;72210;47.076;15.430;2023-10-13T08:31:51;97469.22;;;19.29;88.70
61037;BME280;72210;47.076;15.430;2023-10-13T08:34:18;97467.34;;;19.49;86.96
61037;BME280;72210;47.076;15.430;2023-10-13T08:36:46;97468.22;;;20.95;76.71
61037;BME280;72210;47.076;15.430;2023-10-13T08:39:13;97463.56;;;22.92;64.03
61037;BME280;72210;47.076;15.430;2023-10-13T08:41:41;97467.03;;;25.06;55.02
61037;BME280;72210;47.076;15.430;2023-10-13T08:44:11;97466.78;;;27.07;46.67
61037;BME280;72210;47.076;15.430;2023-10-13T08:46:41;97467.09;;;29.10;41.36
61037;BME280;72210;47.076;15.430;2023-10-13T08:49:10;97472.94;;;30.70;38.59
61037;BME280;72210;47.076;15.430;2023-10-13T08:51:39;97480.41;;;31.99;35.21
61037;BME280;72210;47.076;15.430;2023-10-13T08:54:07;97464.84;;;33.04;33.38
61037;BME280;72210;47.076;15.430;2023-10-13T08:56:35;97479.31;;;33.33;31.16
61037;BME280;72210;47.076;15.430;2023-10-13T08:59:03;97486.66;;;33.97;30.71
61037;BME280;72210;47.076;15.430;2023-10-13T09:01:32;97483.56;;;34.05;29.95
61037;BME280;72210;47.076;15.430;2023-10-13T09:04:01;97493.13;;;34.53;29.45
61037;BME280;72210;47.076;15.430;2023-10-13T09:06:29;97490.91;;;34.79;28.48
61037;BME280;72210;47.076;15.430;2023-10-13T09:09:04;97486.56;;;35.12;28.84
61037;BME280;72210;47.076;15.430;2023-10-13T09:11:34;97484.88;;;35.62;27.73
61037;BME280;72210;47.076;15.430;2023-10-13T09:14:02;97482.50;;;36.32;26.69
61037;BME280;72210;47.076;15.430;2023-10-13T09:16:30;97484.13;;;36.88;25.70
61037;BME280;72210;47.076;15.430;2023-10-13T09:19:03;97490.97;;;37.76;24.49
61037;BME280;72210;47.076;15.430;2023-10-13T09:21:37;97491.81;;;38.60;23.18
61037;BME280;72210;47.076;15.430;2023-10-13T09:24:06;97482.56;;;39.28;22.48
61037;BME280;72210;47.076;15.430;2023-10-13T09:26:35;97489.75;;;40.05;21.57
61037;BME280;72210;47.076;15.430;2023-10-13T09:29:02;97479.47;;;40.81;20.74
61037;BME280;72210;47.076;15.430;2023-10-13T09:31:29;97480.97;;;41.26;20.27
61037;BME280;72210;47.076;15.430;2023-10-13T09:33:56;97482.09;;;41.79;19.57
61037;BME280;72210;47.076;15.430;2023-10-13T09:36:25;97483.53;;;41.95;19.23
61037;BME280;72210;47.076;15.430;2023-10-13T09:38:53;97491.00;;;42.33;19.09
61037;BME280;72210;47.076;15.430;2023-10-13T09:41:20;97482.09;;;42.79;18.66
61037;BME280;72210;47.076;15.430;2023-10-13T09:43:47;97488.91;;;43.15;18.33
61037;BME280;72210;47.076;15.430;2023-10-13T09:46:19;97485.75;;;43.54;17.39
61037;BME280;72210;47.076;15.430;2023-10-13T09:48:47;97484.53;;;43.88;17.07
61037;BME280;72210;47.076;15.430;2023-10-13T09:51:15;97479.34;;;44.01;16.84
61037;BME280;72210;47.076;15.430;2023-10-13T09:53:47;97472.50;;;44.12;16.58
61037;BME280;72210;47.076;15.430;2023-10-13T09:56:40;97465.47;;;44.34;16.06
61037;BME280;72210;47.076;15.430;2023-10-13T09:59:11;97470.16;;;44.19;16.04
61037;BME280;72210;47.076;15.430;2023-10-13T10:01:42;97464.28;;;44.12;16.12
61037;BME280;72210;47.076;15.430;2023-10-13T10:04:11;97472.69;;;44.16;16.43
61037;BME280;72210;47.076;15.430;2023-10-13T10:06:51;97470.59;;;44.49;16.08
61037;BME280;72210;47.076;15.430;2023-10-13T10:09:26;97471.47;;;44.58;16.02
61037;BME280;72210;47.076;15.430;2023-10-13T10:12:12;97467.75;;;44.77;16.06
61037;BME280;72210;47.076;15.430;2023-10-13T10:14:59;97467.53;;;44.51;16.37
61037;BME280;72210;47.076;15.430;2023-10-13T10:17:38;97468.44;;;44.83;16.32
61037;BME280;72210;47.076;15.430;2023-10-13T10:20:09;97464.91;;;45.45;15.78
61037;BME280;72210;47.076;15.430;2023-10-13T10:22:36;97459.13;;;46.13;14.84
61037;BME280;72210;47.076;15.430;2023-10-13T10:25:05;97464.91;;;46.02;14.64
61037;BME280;72210;47.076;15.430;2023-10-13T10:27:33;97461.41;;;45.62;14.99
61037;BME280;72210;47.076;15.430;2023-10-13T10:30:00;97456.81;;;45.40;15.44
61037;BME280;72210;47.076;15.430;2023-10-13T10:32:35;97462.59;;;45.38;15.00
61037;BME280;72210;47.076;15.430;2023-10-13T10:35:05;97460.56;;;45.44;15.59
61037;BME280;72210;47.076;15.430;2023-10-13T10:37:32;97447.78;;;45.08;15.47
61037;BME280;72210;47.076;15.430;2023-10-13T10:40:00;97447.31;;;44.92;15.45
61037;BME280;72210;47.076;15.430;2023-10-13T10:42:29;97436.78;;;45.08;15.26
61037;BME280;72210;47.076;15.430;2023-10-13T10:44:56;97433.56;;;45.14;15.56
61037;BME280;72210;47.076;15.430;2023-10-13T10:47:23;97438.81;;;45.33;15.32
61037;BME280;72210;47.076;15.430;2023-10-13T10:49:51;97440.31;;;45.80;14.83
61037;BME280;72210;47.076;15.430;2023-10-13T10:52:18;97425.47;;;46.25;14.49
61037;BME280;72210;47.076;15.430;2023-10-13T10:54:58;97417.84;;;45.95;14.32
61037;BME280;72210;47.076;15.430;2023-10-13T10:57:25;97420.56;;;45.86;14.05
61037;BME280;72210;47.076;15.430;2023-10-13T10:59:54;97417.03;;;46.12;13.81
61037;BME280;72210;47.076;15.430;2023-10-13T11:02:30;97415.44;;;46.29;13.63
61037;BME280;72210;47.076;15.430;2023-10-13T11:04:57;97412.50;;;45.90;13.84
61037;BME280;72210;47.076;15.430;2023-10-13T11:07:25;97399.56;;;46.26;13.70
61037;BME280;72210;47.076;15.430;2023-10-13T11:09:53;97408.44;;;46.66;12.90
61037;BME280;72210;47.076;15.430;2023-10-13T11:12:20;97403.09;;;46.70;12.74
61037;BME280;72210;47.076;15.430;2023-10-13T11:14:48;97406.31;;;46.72;13.24
61037;BME280;72210;47.076;15.430;2023-10-13T11:17:21;97394.63;;;46.84;12.60
61037;BME280;72210;47.076;15.430;2023-10-13T11:19:48;97397.00;;;47.11;12.84
61037;BME280;72210;47.076;15.430;2023-10-13T11:22:17;97389.72;;;47.67;12.37
61037;BME280;72210;47.076;15.430;2023-10-13T11:24:45;97386.97;;;47.75;12.01
61037;BME280;72210;47.076;15.430;2023-10-13T11:27:15;97384.66;;;47.47;12.68
61037;BME280;72210;47.076;15.430;2023-10-13T11:29:43;97391.81;;;46.92;12.28
61037;BME280;72210;47.076;15.430;2023-10-13T11:32:10;97383.25;;;46.94;12.74
61037;BME280;72210;47.076;15.430;2023-10-13T11:34:39;97379.56;;;47.28;12.87
61037;BME280;72210;47.076;15.430;2023-10-13T11:37:07;97383.31;;;47.24;12.87
61037;BME280;72210;47.076;15.430;2023-10-13T11:39:34;97380.94;;;47.05;13.01
61037;BME280;72210;47.076;15.430;2023-10-13T11:42:01;97375.09;;;46.59;12.50
61037;BME280;72210;47.076;15.430;2023-10-13T11:44:28;97368.91;;;46.53;12.60
61037;BME280;72210;47.076;15.430;2023-10-13T11:46:55;97364.63;;;43.52;14.24
61037;BME280;72210;47.076;15.430;2023-10-13T11:49:23;97352.88;;;40.42;16.39
61037;BME280;72210;47.076;15.430;2023-10-13T11:51:51;97351.97;;;37.36;19.39
61037;BME280;72210;47.076;15.430;2023-10-13T11:54:20;97343.41;;;35.55;20.62
61037;BME280;72210;47.076;15.430;2023-10-13T11:56:48;97337.47;;;33.95;22.12
61037;BME280;72210;47.076;15.430;2023-10-13T11:59:16;97336.19;;;33.16;23.06
61037;BME280;72210;47.076;15.430;2023-10-13T12:01:44;97321.13;;;32.14;24.23
61037;BME280;72210;47.076;15.430;2023-10-13T12:04:12;97321.81;;;31.30;25.06
61037;BME280;72210;47.076;15.430;2023-10-13T12:06:42;97317.56;;;30.60;24.90
61037;BME280;72210;47.076;15.430;2023-10-13T12:09:11;97315.19;;;30.20;26.88
61037;BME280;72210;47.076;15.430;2023-10-13T12:11:38;97311.75;;;29.74;27.00
61037;BME280;72210;47.076;15.430;2023-10-13T12:14:06;97304.72;;;29.34;27.41
61037;BME280;72210;47.076;15.430;2023-10-13T12:16:33;97310.13;;;29.14;28.41
61037;BME280;72210;47.076;15.430;2023-10-13T12:19:01;97311.06;;;28.75;29.17
61037;BME280;72210;47.076;15.430;2023-10-13T12:21:28;97309.44;;;28.40;29.37
61037;BME280;72210;47.076;15.430;2023-10-13T12:23:55;97305.50;;;28.16;29.86
61037;BME280;72210;47.076;15.430;2023-10-13T12:26:24;97298.72;;;28.00;30.88
61037;BME280;72210;47.076;15.430;2023-10-13T12:28:52;97291.22;;;27.69;31.39
61037;BME280;72210;47.076;15.430;2023-10-13T12:31:19;97291.19;;;27.55;31.92
61037;BME280;72210;47.076;15.430;2023-10-13T12:33:46;97291.19;;;27.49;32.16
61037;BME280;72210;47.076;15.430;2023-10-13T12:36:14;97282.50;;;27.40;32.98
61037;BME280;72210;47.076;15.430;2023-10-13T12:38:41;97291.31;;;27.34;32.32
61037;BME280;72210;47.076;15.430;2023-10-13T12:41:08;97288.34;;;27.22;32.81
61037;BME280;72210;47.076;15.430;2023-10-13T12:43:56;97285.72;;;27.29;34.31
61037;BME280;72210;47.076;15.430;2023-10-13T12:46:24;97279.53;;;27.28;35.37
61037;BME280;72210;47.076;15.430;2023-10-13T12:48:52;97272.72;;;27.19;33.38